sensor_id;sensor_type;location;lat;lon;timestamp;P1;durP1;ratioP1;P2;durP2;ratioP2
2564;SDS011;1292;48.020;7.822;2022-12-18T06:48:02;24.70;;;12.17;;
2564;SDS011;1292;48.020;7.822;2022-12-18T06:50:29;23.07;;;11.10;;
2564;SDS011;1292;48.020;7.822;2022-12-18T06:52:56;31.80;;;10.10;;
2564;SDS011;1292;48.020;7.822;2022-12-18T06:55:23;31.93;;;11.30;;
2564;SDS011;1292;48.020;7.822;2022-12-18T06:57:50;27.33;;;16.00;;
2564;SDS011;1292;48.020;7.822;2022-12-18T07:00:17;29.17;;;12.07;;
2564;SDS011;1292;48.020;7.822;2022-12-18T07:02:45;17.93;;;10.10;;
2564;SDS011;1292;48.020;7.822;2022-12-18T07:05:12;20.17;;;9.40;;
2564;SDS011;1292;48.020;7.822;2022-12-18T07:07:39;17.50;;;9.57;;
2564;SDS011;1292;48.020;7.822;2022-12-18T07:10:06;10.77;;;8.40;;
2564;SDS011;1292;48.020;7.822;2022-12-18T07:12:33;14.40;;;8.53;;
2564;SDS011;1292;48.020;7.822;2022-12-18T07:15:00;19.30;;;11.10;;
2564;SDS011;1292;48.020;7.822;2022-12-18T07:17:27;15.63;;;9.40;;
2564;SDS011;1292;48.020;7.822;2022-12-18T07:19:55;22.63;;;12.10;;
2564;SDS011;1292;48.020;7.822;2022-12-18T07:22:22;24.07;;;9.30;;
2564;SDS011;1292;48.020;7.822;2022-12-18T07:24:51;9.00;;;6.80;;
2564;SDS011;1292;48.020;7.822;2022-12-18T07:27:17;14.87;;;8.33;;
2564;SDS011;1292;48.020;7.822;2022-12-18T07:29:44;20.03;;;10.07;;
2564;SDS011;1292;48.020;7.822;2022-12-18T07:32:11;14.00;;;8.67;;
2564;SDS011;1292;48.020;7.822;2022-12-18T07:34:38;12.23;;;7.33;;
2564;SDS011;1292;48.020;7.822;2022-12-18T07:37:06;11.07;;;7.57;;
2564;SDS011;1292;48.020;7.822;2022-12-18T07:39:33;21.03;;;8.17;;
2564;SDS011;1292;48.020;7.822;2022-12-18T07:42:00;14.07;;;9.20;;
2564;SDS011;1292;48.020;7.822;2022-12-18T07:44:44;19.33;;;10.23;;
2564;SDS011;1292;48.020;7.822;2022-12-18T07:47:11;17.23;;;10.47;;
2564;SDS011;1292;48.020;7.822;2022-12-18T07:49:38;18.27;;;10.00;;
2564;SDS011;1292;48.020;7.822;2022-12-18T07:52:05;13.87;;;8.60;;
2564;SDS011;1292;48.020;7.822;2022-12-18T07:54:34;11.90;;;6.17;;
2564;SDS011;1292;48.020;7.822;2022-12-18T07:57:01;11.90;;;9.00;;
2564;SDS011;1292;48.020;7.822;2022-12-18T07:59:28;15.23;;;7.57;;
2564;SDS011;1292;48.020;7.822;2022-12-18T08:01:55;16.47;;;9.83;;
2564;SDS011;1292;48.020;7.822;2022-12-18T08:04:21;15.87;;;10.47;;
2564;SDS011;1292;48.020;7.822;2022-12-18T08:06:48;12.90;;;9.03;;
2564;SDS011;1292;48.020;7.822;2022-12-18T08:09:16;19.03;;;8.53;;
2564;SDS011;1292;48.020;7.822;2022-12-18T08:11:43;16.20;;;8.93;;
2564;SDS011;1292;48.020;7.822;2022-12-18T08:14:10;15.23;;;8.67;;
2564;SDS011;1292;48.020;7.822;2022-12-18T08:16:37;18.00;;;8.90;;
2564;SDS011;1292;48.020;7.822;2022-12-18T08:19:04;21.37;;;9.57;;
2564;SDS011;1292;48.020;7.822;2022-12-18T08:21:31;20.80;;;9.50;;
2564;SDS011;1292;48.020;7.822;2022-12-18T08:23:59;16.87;;;10.73;;
2564;SDS011;1292;48.020;7.822;2022-12-18T08:26:28;21.87;;;10.37;;
2564;SDS011;1292;48.020;7.822;2022-12-18T08:28:57;21.07;;;11.60;;
2564;SDS011;1292;48.020;7.822;2022-12-18T08:31:26;22.20;;;9.83;;
2564;SDS011;1292;48.020;7.822;2022-12-18T08:33:54;15.60;;;8.23;;
2564;SDS011;1292;48.020;7.822;2022-12-18T08:36:21;21.53;;;11.27;;
2564;SDS011;1292;48.020;7.822;2022-12-18T08:38:49;13.70;;;8.37;;
2564;SDS011;1292;48.020;7.822;2022-12-18T08:41:16;31.10;;;10.77;;
2564;SDS011;1292;48.020;7.822;2022-12-18T08:43:46;23.60;;;11.33;;
2564;SDS011;1292;48.020;7.822;2022-12-18T08:46:34;16.63;;;10.53;;
2564;SDS011;1292;48.020;7.822;2022-12-18T08:49:02;19.60;;;9.93;;
2564;SDS011;1292;48.020;7.822;2022-12-18T08:51:30;29.83;;;15.80;;
2564;SDS011;1292;48.020;7.822;2022-12-18T08:53:57;20.40;;;13.13;;
2564;SDS011;1292;48.020;7.822;2022-12-18T08:56:24;25.00;;;13.03;;
2564;SDS011;1292;48.020;7.822;2022-12-18T08:58:52;19.73;;;11.73;;
2564;SDS011;1292;48.020;7.822;2022-12-18T09:01:20;27.00;;;13.27;;
2564;SDS011;1292;48.020;7.822;2022-12-18T09:03:47;26.53;;;12.37;;
2564;SDS011;1292;48.020;7.822;2022-12-18T09:06:14;21.10;;;11.30;;
2564;SDS011;1292;48.020;7.822;2022-12-18T09:08:42;34.10;;;12.53;;
2564;SDS011;1292;48.020;7.822;2022-12-18T09:11:11;22.13;;;13.30;;
2564;SDS011;1292;48.020;7.822;2022-12-18T09:13:41;12.83;;;8.93;;
2564;SDS011;1292;48.020;7.822;2022-12-18T09:16:09;26.53;;;10.80;;
2564;SDS011;1292;48.020;7.822;2022-12-18T09:18:36;20.90;;;12.57;;
2564;SDS011;1292;48.020;7.822;2022-12-18T09:21:10;20.00;;;10.80;;
2564;SDS011;1292;48.020;7.822;2022-12-18T09:23:38;23.37;;;11.20;;
2564;SDS011;1292;48.020;7.822;2022-12-18T09:26:05;23.10;;;10.60;;
2564;SDS011;1292;48.020;7.822;2022-12-18T09:28:32;17.17;;;9.13;;
2564;SDS011;1292;48.020;7.822;2022-12-18T09:31:03;21.10;;;10.80;;
2564;SDS011;1292;48.020;7.822;2022-12-18T09:33:32;17.67;;;11.27;;
2564;SDS011;1292;48.020;7.822;2022-12-18T09:36:00;14.67;;;11.20;;
2564;SDS011;1292;48.020;7.822;2022-12-18T09:38:28;20.90;;;10.17;;
2564;SDS011;1292;48.020;7.822;2022-12-18T09:40:56;17.23;;;10.07;;
2564;SDS011;1292;48.020;7.822;2022-12-18T09:43:28;20.10;;;9.50;;
2564;SDS011;1292;48.020;7.822;2022-12-18T09:46:01;24.30;;;10.97;;
2564;SDS011;1292;48.020;7.822;2022-12-18T09:48:34;16.77;;;10.60;;
2564;SDS011;1292;48.020;7.822;2022-12-18T09:51:05;16.70;;;9.57;;
2564;SDS011;1292;48.020;7.822;2022-12-18T09:53:38;20.40;;;11.00;;
2564;SDS011;1292;48.020;7.822;2022-12-18T09:56:10;18.40;;;11.17;;
2564;SDS011;1292;48.020;7.822;2022-12-18T09:58:43;28.80;;;13.30;;
2564;SDS011;1292;48.020;7.822;2022-12-18T10:01:16;12.73;;;9.97;;
2564;SDS011;1292;48.020;7.822;2022-12-18T10:03:50;24.53;;;10.57;;
2564;SDS011;1292;48.020;7.822;2022-12-18T10:06:20;18.80;;;10.43;;
2564;SDS011;1292;48.020;7.822;2022-12-18T10:08:53;25.33;;;12.10;;
2564;SDS011;1292;48.020;7.822;2022-12-18T10:11:27;14.70;;;10.83;;
2564;SDS011;1292;48.020;7.822;2022-12-18T10:14:05;17.13;;;10.00;;
2564;SDS011;1292;48.020;7.822;2022-12-18T10:16:40;17.93;;;11.73;;
2564;SDS011;1292;48.020;7.822;2022-12-18T10:19:21;21.77;;;10.70;;
2564;SDS011;1292;48.020;7.822;2022-12-18T10:21:57;19.10;;;12.83;;
2564;SDS011;1292;48.020;7.822;2022-12-18T10:24:35;19.93;;;12.37;;
2564;SDS011;1292;48.020;7.822;2022-12-18T10:27:09;20.13;;;10.87;;
2564;SDS011;1292;48.020;7.822;2022-12-18T10:29:41;20.37;;;10.63;;
2564;SDS011;1292;48.020;7.822;2022-12-18T10:32:09;21.50;;;11.30;;
2564;SDS011;1292;48.020;7.822;2022-12-18T10:34:44;22.30;;;11.10;;
2564;SDS011;1292;48.020;7.822;2022-12-18T10:37:14;18.30;;;11.70;;
2564;SDS011;1292;48.020;7.822;2022-12-18T10:39:44;17.47;;;11.73;;
2564;SDS011;1292;48.020;7.822;2022-12-18T10:42:13;24.17;;;13.23;;
2564;SDS011;1292;48.020;7.822;2022-12-18T10:44:43;19.93;;;14.47;;
2564;SDS011;1292;48.020;7.822;2022-12-18T10:47:12;25.00;;;12.47;;
2564;SDS011;1292;48.020;7.822;2022-12-18T10:49:50;21.30;;;11.50;;
2564;SDS011;1292;48.020;7.822;2022-12-18T10:52:20;17.67;;;10.60;;
2564;SDS011;1292;48.020;7.822;2022-12-18T10:54:49;16.00;;;10.20;;
2564;SDS011;1292;48.020;7.822;2022-12-18T10:57:28;17.47;;;10.97;;
2564;SDS011;1292;48.020;7.822;2022-12-18T11:00:18;28.77;;;13.57;;
2564;SDS011;1292;48.020;7.822;2022-12-18T11:02:48;20.47;;;11.70;;
2564;SDS011;1292;48.020;7.822;2022-12-18T11:05:27;22.30;;;11.97;;
2564;SDS011;1292;48.020;7.822;2022-12-18T11:07:56;22.67;;;11.10;;
2564;SDS011;1292;48.020;7.822;2022-12-18T11:10:26;22.90;;;12.43;;
2564;SDS011;1292;48.020;7.822;2022-12-18T11:13:08;18.93;;;11.70;;
2564;SDS011;1292;48.020;7.822;2022-12-18T11:15:36;26.37;;;12.97;;
2564;SDS011;1292;48.020;7.822;2022-12-18T11:18:13;17.07;;;10.77;;
2564;SDS011;1292;48.020;7.822;2022-12-18T11:20:46;26.10;;;14.70;;
2564;SDS011;1292;48.020;7.822;2022-12-18T11:23:18;27.47;;;13.30;;
2564;SDS011;1292;48.020;7.822;2022-12-18T11:25:50;25.10;;;12.10;;
2564;SDS011;1292;48.020;7.822;2022-12-18T11:28:33;23.63;;;12.17;;
2564;SDS011;1292;48.020;7.822;2022-12-18T11:31:09;17.93;;;12.10;;
2564;SDS011;1292;48.020;7.822;2022-12-18T11:33:44;22.50;;;12.27;;
2564;SDS011;1292;48.020;7.822;2022-12-18T11:36:17;24.80;;;13.93;;
2564;SDS011;1292;48.020;7.822;2022-12-18T11:38:46;25.80;;;12.90;;
2564;SDS011;1292;48.020;7.822;2022-12-18T11:41:16;23.87;;;13.70;;
2564;SDS011;1292;48.020;7.822;2022-12-18T11:43:48;20.60;;;13.40;;
2564;SDS011;1292;48.020;7.822;2022-12-18T11:46:23;17.70;;;12.00;;
2564;SDS011;1292;48.020;7.822;2022-12-18T11:48:55;25.27;;;13.17;;
2564;SDS011;1292;48.020;7.822;2022-12-18T11:51:29;22.60;;;13.77;;
2564;SDS011;1292;48.020;7.822;2022-12-18T11:54:01;16.20;;;9.77;;
2564;SDS011;1292;48.020;7.822;2022-12-18T11:56:39;19.57;;;11.27;;
2564;SDS011;1292;48.020;7.822;2022-12-18T11:59:15;25.50;;;15.70;;
2564;SDS011;1292;48.020;7.822;2022-12-18T12:01:51;26.33;;;12.67;;
2564;SDS011;1292;48.020;7.822;2022-12-18T12:04:27;27.83;;;14.20;;
2564;SDS011;1292;48.020;7.822;2022-12-18T12:07:06;22.80;;;13.67;;
2564;SDS011;1292;48.020;7.822;2022-12-18T12:09:44;30.67;;;15.77;;
2564;SDS011;1292;48.020;7.822;2022-12-18T12:12:23;24.73;;;15.97;;
2564;SDS011;1292;48.020;7.822;2022-12-18T12:15:12;20.50;;;12.70;;
2564;SDS011;1292;48.020;7.822;2022-12-18T12:17:49;22.40;;;13.40;;
2564;SDS011;1292;48.020;7.822;2022-12-18T12:20:21;24.23;;;12.93;;
2564;SDS011;1292;48.020;7.822;2022-12-18T12:22:55;26.17;;;13.73;;
2564;SDS011;1292;48.020;7.822;2022-12-18T12:25:31;27.60;;;13.50;;
2564;SDS011;1292;48.020;7.822;2022-12-18T12:28:06;23.47;;;13.33;;
2564;SDS011;1292;48.020;7.822;2022-12-18T12:30:43;22.77;;;13.97;;
2564;SDS011;1292;48.020;7.822;2022-12-18T12:33:21;20.97;;;13.67;;
2564;SDS011;1292;48.020;7.822;2022-12-18T12:35:58;24.73;;;12.37;;
2564;SDS011;1292;48.020;7.822;2022-12-18T12:38:35;25.43;;;14.93;;
2564;SDS011;1292;48.020;7.822;2022-12-18T12:41:11;27.83;;;14.00;;
2564;SDS011;1292;48.020;7.822;2022-12-18T12:43:54;20.47;;;12.57;;
2564;SDS011;1292;48.020;7.822;2022-12-18T12:46:24;21.17;;;12.27;;
2564;SDS011;1292;48.020;7.822;2022-12-18T12:48:52;19.73;;;13.73;;
2564;SDS011;1292;48.020;7.822;2022-12-18T12:51:22;22.10;;;14.37;;
2564;SDS011;1292;48.020;7.822;2022-12-18T12:53:54;21.57;;;14.00;;
2564;SDS011;1292;48.020;7.822;2022-12-18T12:56:22;20.17;;;12.53;;
2564;SDS011;1292;48.020;7.822;2022-12-18T12:58:56;23.10;;;14.17;;
2564;SDS011;1292;48.020;7.822;2022-12-18T13:01:32;20.37;;;12.60;;
2564;SDS011;1292;48.020;7.822;2022-12-18T13:04:08;19.63;;;12.63;;
2564;SDS011;1292;48.020;7.822;2022-12-18T13:06:46;21.53;;;12.00;;
2564;SDS011;1292;48.020;7.822;2022-12-18T13:09:17;17.90;;;12.60;;
2564;SDS011;1292;48.020;7.822;2022-12-18T13:11:44;18.43;;;12.13;;
2564;SDS011;1292;48.020;7.822;2022-12-18T13:14:31;16.93;;;11.57;;
2564;SDS011;1292;48.020;7.822;2022-12-18T13:17:16;23.10;;;13.47;;
2564;SDS011;1292;48.020;7.822;2022-12-18T13:20:02;20.70;;;12.00;;
2564;SDS011;1292;48.020;7.822;2022-12-18T13:22:33;21.57;;;12.83;;
2564;SDS011;1292;48.020;7.822;2022-12-18T13:25:03;21.13;;;13.40;;
2564;SDS011;1292;48.020;7.822;2022-12-18T13:28:05;36.47;;;28.07;;
2564;SDS011;1292;48.020;7.822;2022-12-18T13:30:44;24.97;;;16.83;;
2564;SDS011;1292;48.020;7.822;2022-12-18T13:48:20;18.57;;;11.50;;
2564;SDS011;1292;48.020;7.822;2022-12-18T13:50:53;24.17;;;13.60;;
2564;SDS011;1292;48.020;7.822;2022-12-18T13:53:24;22.00;;;15.83;;
2564;SDS011;1292;48.020;7.822;2022-12-18T13:55:54;19.90;;;14.07;;
2564;SDS011;1292;48.020;7.822;2022-12-18T13:58:21;20.17;;;13.27;;
2564;SDS011;1292;48.020;7.822;2022-12-18T14:00:49;19.80;;;12.73;;
2564;SDS011;1292;48.020;7.822;2022-12-18T14:03:18;19.53;;;12.70;;
2564;SDS011;1292;48.020;7.822;2022-12-18T14:05:51;20.40;;;14.00;;
2564;SDS011;1292;48.020;7.822;2022-12-18T14:08:27;16.83;;;12.00;;
2564;SDS011;1292;48.020;7.822;2022-12-18T14:10:59;21.77;;;13.93;;
2564;SDS011;1292;48.020;7.822;2022-12-18T14:13:30;19.03;;;14.60;;
2564;SDS011;1292;48.020;7.822;2022-12-18T14:16:01;24.30;;;15.37;;
2564;SDS011;1292;48.020;7.822;2022-12-18T14:18:33;18.90;;;13.40;;
2564;SDS011;1292;48.020;7.822;2022-12-18T14:21:05;19.87;;;14.53;;
2564;SDS011;1292;48.020;7.822;2022-12-18T14:23:33;21.80;;;14.53;;
2564;SDS011;1292;48.020;7.822;2022-12-18T14:26:02;20.53;;;16.40;;
2564;SDS011;1292;48.020;7.822;2022-12-18T14:28:46;16.73;;;11.93;;
2564;SDS011;1292;48.020;7.822;2022-12-18T14:31:18;20.30;;;14.20;;
2564;SDS011;1292;48.020;7.822;2022-12-18T14:33:45;25.80;;;13.43;;
2564;SDS011;1292;48.020;7.822;2022-12-18T14:36:14;19.63;;;12.90;;
2564;SDS011;1292;48.020;7.822;2022-12-18T14:38:43;22.47;;;13.20;;
2564;SDS011;1292;48.020;7.822;2022-12-18T14:41:14;15.53;;;12.17;;
2564;SDS011;1292;48.020;7.822;2022-12-18T14:43:44;25.77;;;14.67;;
2564;SDS011;1292;48.020;7.822;2022-12-18T14:46:27;17.77;;;12.17;;
2564;SDS011;1292;48.020;7.822;2022-12-18T14:48:56;28.80;;;11.97;;
2564;SDS011;1292;48.020;7.822;2022-12-18T14:51:23;18.10;;;13.97;;
2564;SDS011;1292;48.020;7.822;2022-12-18T14:53:55;19.87;;;13.00;;
2564;SDS011;1292;48.020;7.822;2022-12-18T14:56:24;19.27;;;11.57;;
2564;SDS011;1292;48.020;7.822;2022-12-18T14:58:53;13.77;;;11.07;;
2564;SDS011;1292;48.020;7.822;2022-12-18T15:01:23;23.90;;;14.43;;
2564;SDS011;1292;48.020;7.822;2022-12-18T15:03:54;18.50;;;12.20;;
2564;SDS011;1292;48.020;7.822;2022-12-18T15:06:24;19.37;;;13.97;;
2564;SDS011;1292;48.020;7.822;2022-12-18T15:08:53;21.23;;;13.80;;
2564;SDS011;1292;48.020;7.822;2022-12-18T15:11:28;18.50;;;11.50;;
2564;SDS011;1292;48.020;7.822;2022-12-18T15:13:59;19.53;;;13.57;;
2564;SDS011;1292;48.020;7.822;2022-12-18T15:16:49;18.30;;;14.37;;
2564;SDS011;1292;48.020;7.822;2022-12-18T15:19:18;20.47;;;12.97;;
2564;SDS011;1292;48.020;7.822;2022-12-18T15:21:47;23.80;;;14.80;;
2564;SDS011;1292;48.020;7.822;2022-12-18T15:24:16;23.50;;;13.83;;
2564;SDS011;1292;48.020;7.822;2022-12-18T15:26:48;20.43;;;14.40;;
2564;SDS011;1292;48.020;7.822;2022-12-18T15:29:15;27.73;;;15.37;;
2564;SDS011;1292;48.020;7.822;2022-12-18T15:31:57;21.77;;;14.83;;
2564;SDS011;1292;48.020;7.822;2022-12-18T15:34:26;29.73;;;18.97;;
2564;SDS011;1292;48.020;7.822;2022-12-18T15:36:53;29.40;;;18.40;;
2564;SDS011;1292;48.020;7.822;2022-12-18T15:39:20;31.37;;;16.00;;
2564;SDS011;1292;48.020;7.822;2022-12-18T15:41:47;23.23;;;14.40;;
2564;SDS011;1292;48.020;7.822;2022-12-18T15:44:37;18.50;;;14.07;;
2564;SDS011;1292;48.020;7.822;2022-12-18T15:47:07;17.93;;;13.30;;
2564;SDS011;1292;48.020;7.822;2022-12-18T15:49:38;24.97;;;15.13;;
2564;SDS011;1292;48.020;7.822;2022-12-18T15:52:05;20.83;;;15.87;;
2564;SDS011;1292;48.020;7.822;2022-12-18T15:54:38;32.13;;;18.87;;
2564;SDS011;1292;48.020;7.822;2022-12-18T15:57:22;21.27;;;14.67;;
2564;SDS011;1292;48.020;7.822;2022-12-18T15:59:49;34.23;;;22.33;;
2564;SDS011;1292;48.020;7.822;2022-12-18T16:02:17;21.97;;;16.33;;
2564;SDS011;1292;48.020;7.822;2022-12-18T16:04:48;23.27;;;15.97;;
2564;SDS011;1292;48.020;7.822;2022-12-18T16:07:16;26.20;;;16.70;;
2564;SDS011;1292;48.020;7.822;2022-12-18T16:09:43;22.50;;;14.53;;
2564;SDS011;1292;48.020;7.822;2022-12-18T16:12:14;23.53;;;14.73;;
2564;SDS011;1292;48.020;7.822;2022-12-18T16:14:43;26.50;;;16.47;;
2564;SDS011;1292;48.020;7.822;2022-12-18T16:17:10;25.87;;;17.67;;
2564;SDS011;1292;48.020;7.822;2022-12-18T16:19:38;31.67;;;20.00;;
2564;SDS011;1292;48.020;7.822;2022-12-18T16:22:08;28.37;;;19.00;;
2564;SDS011;1292;48.020;7.822;2022-12-18T16:24:45;27.80;;;16.80;;
2564;SDS011;1292;48.020;7.822;2022-12-18T16:27:11;19.17;;;14.63;;
2564;SDS011;1292;48.020;7.822;2022-12-18T16:29:38;31.00;;;18.00;;
2564;SDS011;1292;48.020;7.822;2022-12-18T16:32:05;31.80;;;17.30;;
2564;SDS011;1292;48.020;7.822;2022-12-18T16:34:33;27.23;;;16.47;;
2564;SDS011;1292;48.020;7.822;2022-12-18T16:37:01;30.50;;;17.57;;
2564;SDS011;1292;48.020;7.822;2022-12-18T16:39:30;29.73;;;17.33;;
2564;SDS011;1292;48.020;7.822;2022-12-18T16:41:58;35.70;;;19.80;;
2564;SDS011;1292;48.020;7.822;2022-12-18T16:44:25;26.43;;;18.20;;
2564;SDS011;1292;48.020;7.822;2022-12-18T16:46:52;29.60;;;18.67;;
2564;SDS011;1292;48.020;7.822;2022-12-18T16:49:19;28.73;;;17.40;;
2564;SDS011;1292;48.020;7.822;2022-12-18T16:51:46;18.03;;;14.87;;
2564;SDS011;1292;48.020;7.822;2022-12-18T16:54:13;33.60;;;20.90;;
2564;SDS011;1292;48.020;7.822;2022-12-18T16:56:41;28.63;;;19.17;;
2564;SDS011;1292;48.020;7.822;2022-12-18T16:59:09;26.07;;;17.57;;
2564;SDS011;1292;48.020;7.822;2022-12-18T17:01:37;37.80;;;19.50;;
2564;SDS011;1292;48.020;7.822;2022-12-18T17:04:06;34.50;;;20.27;;
2564;SDS011;1292;48.020;7.822;2022-12-18T17:06:34;31.93;;;18.10;;
2564;SDS011;1292;48.020;7.822;2022-12-18T17:09:03;26.77;;;18.87;;
2564;SDS011;1292;48.020;7.822;2022-12-18T17:11:31;28.60;;;19.50;;
2564;SDS011;1292;48.020;7.822;2022-12-18T17:14:04;30.50;;;19.40;;
2564;SDS011;1292;48.020;7.822;2022-12-18T17:16:32;34.23;;;21.70;;
2564;SDS011;1292;48.020;7.822;2022-12-18T17:18:59;26.70;;;17.10;;
2564;SDS011;1292;48.020;7.822;2022-12-18T17:21:26;33.73;;;20.10;;
2564;SDS011;1292;48.020;7.822;2022-12-18T17:23:53;34.70;;;21.90;;
2564;SDS011;1292;48.020;7.822;2022-12-18T17:26:20;40.10;;;23.87;;
2564;SDS011;1292;48.020;7.822;2022-12-18T17:28:47;40.40;;;25.43;;
2564;SDS011;1292;48.020;7.822;2022-12-18T17:31:17;29.20;;;17.80;;
2564;SDS011;1292;48.020;7.822;2022-12-18T17:33:45;29.30;;;20.70;;
2564;SDS011;1292;48.020;7.822;2022-12-18T17:36:13;32.87;;;19.23;;
2564;SDS011;1292;48.020;7.822;2022-12-18T17:38:40;33.83;;;19.53;;
2564;SDS011;1292;48.020;7.822;2022-12-18T17:41:08;28.63;;;17.70;;
2564;SDS011;1292;48.020;7.822;2022-12-18T17:43:37;27.80;;;18.70;;
2564;SDS011;1292;48.020;7.822;2022-12-18T17:46:11;40.07;;;22.63;;
2564;SDS011;1292;48.020;7.822;2022-12-18T17:48:45;33.23;;;21.93;;
2564;SDS011;1292;48.020;7.822;2022-12-18T17:51:14;32.80;;;22.27;;
2564;SDS011;1292;48.020;7.822;2022-12-18T17:53:42;36.47;;;21.23;;
2564;SDS011;1292;48.020;7.822;2022-12-18T17:56:11;34.73;;;23.17;;
2564;SDS011;1292;48.020;7.822;2022-12-18T17:58:39;34.23;;;20.03;;
2564;SDS011;1292;48.020;7.822;2022-12-18T18:01:06;28.80;;;20.20;;
2564;SDS011;1292;48.020;7.822;2022-12-18T18:03:34;31.60;;;24.97;;
2564;SDS011;1292;48.020;7.822;2022-12-18T18:06:04;38.40;;;22.40;;
2564;SDS011;1292;48.020;7.822;2022-12-18T18:08:32;31.80;;;21.10;;
2564;SDS011;1292;48.020;7.822;2022-12-18T18:11:02;44.70;;;26.93;;
2564;SDS011;1292;48.020;7.822;2022-12-18T18:13:43;35.80;;;21.30;;
2564;SDS011;1292;48.020;7.822;2022-12-18T18:16:30;33.80;;;18.00;;
2564;SDS011;1292;48.020;7.822;2022-12-18T18:18:59;35.33;;;21.60;;
2564;SDS011;1292;48.020;7.822;2022-12-18T18:21:29;29.83;;;17.40;;
2564;SDS011;1292;48.020;7.822;2022-12-18T18:23:58;24.97;;;18.60;;
2564;SDS011;1292;48.020;7.822;2022-12-18T18:26:26;33.93;;;23.40;;
2564;SDS011;1292;48.020;7.822;2022-12-18T18:28:55;42.90;;;21.33;;
2564;SDS011;1292;48.020;7.822;2022-12-18T18:31:22;31.03;;;19.43;;
2564;SDS011;1292;48.020;7.822;2022-12-18T18:33:50;32.07;;;21.50;;
2564;SDS011;1292;48.020;7.822;2022-12-18T18:36:17;32.10;;;18.00;;
2564;SDS011;1292;48.020;7.822;2022-12-18T18:38:45;33.40;;;20.13;;
2564;SDS011;1292;48.020;7.822;2022-12-18T18:41:12;34.80;;;19.67;;
2564;SDS011;1292;48.020;7.822;2022-12-18T18:43:39;37.37;;;20.23;;
2564;SDS011;1292;48.020;7.822;2022-12-18T18:46:08;42.00;;;22.50;;
2564;SDS011;1292;48.020;7.822;2022-12-18T18:48:37;33.77;;;21.60;;
2564;SDS011;1292;48.020;7.822;2022-12-18T18:51:05;40.03;;;18.87;;
2564;SDS011;1292;48.020;7.822;2022-12-18T18:53:34;28.03;;;17.37;;
2564;SDS011;1292;48.020;7.822;2022-12-18T18:56:03;26.80;;;17.23;;
2564;SDS011;1292;48.020;7.822;2022-12-18T18:58:30;27.93;;;18.53;;
2564;SDS011;1292;48.020;7.822;2022-12-18T19:00:59;31.97;;;20.07;;
2564;SDS011;1292;48.020;7.822;2022-12-18T19:03:26;34.23;;;19.57;;
2564;SDS011;1292;48.020;7.822;2022-12-18T19:05:54;38.10;;;23.10;;
2564;SDS011;1292;48.020;7.822;2022-12-18T19:08:24;38.53;;;22.33;;
2564;SDS011;1292;48.020;7.822;2022-12-18T19:10:52;31.30;;;20.00;;
2564;SDS011;1292;48.020;7.822;2022-12-18T19:13:22;36.20;;;18.83;;
2564;SDS011;1292;48.020;7.822;2022-12-18T19:15:51;40.27;;;21.17;;
2564;SDS011;1292;48.020;7.822;2022-12-18T19:18:19;27.50;;;19.67;;
2564;SDS011;1292;48.020;7.822;2022-12-18T19:20:53;39.57;;;21.17;;
2564;SDS011;1292;48.020;7.822;2022-12-18T19:23:21;31.00;;;19.97;;
2564;SDS011;1292;48.020;7.822;2022-12-18T19:25:48;43.87;;;23.60;;
2564;SDS011;1292;48.020;7.822;2022-12-18T19:28:15;35.23;;;22.47;;
2564;SDS011;1292;48.020;7.822;2022-12-18T19:30:43;35.33;;;21.30;;
2564;SDS011;1292;48.020;7.822;2022-12-18T19:33:10;43.37;;;23.73;;
2564;SDS011;1292;48.020;7.822;2022-12-18T19:35:38;48.53;;;27.20;;
2564;SDS011;1292;48.020;7.822;2022-12-18T19:38:04;38.30;;;23.80;;
2564;SDS011;1292;48.020;7.822;2022-12-18T19:40:31;65.77;;;32.20;;
2564;SDS011;1292;48.020;7.822;2022-12-18T19:42:58;46.97;;;26.13;;
2564;SDS011;1292;48.020;7.822;2022-12-18T19:45:25;40.93;;;24.50;;
2564;SDS011;1292;48.020;7.822;2022-12-18T19:47:53;33.90;;;23.73;;
2564;SDS011;1292;48.020;7.822;2022-12-18T19:50:20;41.10;;;23.50;;
2564;SDS011;1292;48.020;7.822;2022-12-18T19:52:47;31.17;;;22.13;;
2564;SDS011;1292;48.020;7.822;2022-12-18T19:55:14;39.97;;;27.80;;
2564;SDS011;1292;48.020;7.822;2022-12-18T19:57:41;57.27;;;30.83;;
2564;SDS011;1292;48.020;7.822;2022-12-18T20:00:09;32.60;;;20.90;;
2564;SDS011;1292;48.020;7.822;2022-12-18T20:02:37;35.47;;;23.90;;
2564;SDS011;1292;48.020;7.822;2022-12-18T20:05:07;35.07;;;23.10;;
2564;SDS011;1292;48.020;7.822;2022-12-18T20:07:35;36.53;;;21.90;;
2564;SDS011;1292;48.020;7.822;2022-12-18T20:10:03;44.30;;;23.20;;
2564;SDS011;1292;48.020;7.822;2022-12-18T20:12:31;36.03;;;22.57;;
2564;SDS011;1292;48.020;7.822;2022-12-18T20:14:58;32.30;;;21.03;;
2564;SDS011;1292;48.020;7.822;2022-12-18T20:17:25;39.13;;;26.40;;
2564;SDS011;1292;48.020;7.822;2022-12-18T20:19:52;37.73;;;21.93;;
2564;SDS011;1292;48.020;7.822;2022-12-18T20:22:20;29.70;;;21.50;;
2564;SDS011;1292;48.020;7.822;2022-12-18T20:24:47;38.10;;;23.20;;
2564;SDS011;1292;48.020;7.822;2022-12-18T20:27:14;45.57;;;22.70;;
2564;SDS011;1292;48.020;7.822;2022-12-18T20:29:41;36.93;;;19.33;;
2564;SDS011;1292;48.020;7.822;2022-12-18T20:32:08;33.03;;;21.43;;
2564;SDS011;1292;48.020;7.822;2022-12-18T20:34:35;35.03;;;21.77;;
2564;SDS011;1292;48.020;7.822;2022-12-18T20:37:02;31.30;;;21.20;;
2564;SDS011;1292;48.020;7.822;2022-12-18T20:39:30;32.37;;;22.27;;
2564;SDS011;1292;48.020;7.822;2022-12-18T20:41:57;27.87;;;19.67;;
2564;SDS011;1292;48.020;7.822;2022-12-18T20:44:24;29.10;;;17.87;;
2564;SDS011;1292;48.020;7.822;2022-12-18T20:46:51;32.13;;;20.57;;
2564;SDS011;1292;48.020;7.822;2022-12-18T20:49:20;42.50;;;20.90;;
2564;SDS011;1292;48.020;7.822;2022-12-18T20:51:50;39.27;;;20.53;;
2564;SDS011;1292;48.020;7.822;2022-12-18T20:54:18;34.43;;;23.47;;
2564;SDS011;1292;48.020;7.822;2022-12-18T20:56:47;40.63;;;22.87;;
2564;SDS011;1292;48.020;7.822;2022-12-18T20:59:14;57.63;;;31.80;;
2564;SDS011;1292;48.020;7.822;2022-12-18T21:01:41;50.47;;;32.63;;
2564;SDS011;1292;48.020;7.822;2022-12-18T21:04:08;52.37;;;26.60;;
2564;SDS011;1292;48.020;7.822;2022-12-18T21:06:35;36.63;;;23.90;;
2564;SDS011;1292;48.020;7.822;2022-12-18T21:09:02;37.90;;;23.30;;
2564;SDS011;1292;48.020;7.822;2022-12-18T21:11:30;33.97;;;23.10;;
2564;SDS011;1292;48.020;7.822;2022-12-18T21:14:18;35.57;;;22.33;;
2564;SDS011;1292;48.020;7.822;2022-12-18T21:16:46;35.37;;;22.43;;
2564;SDS011;1292;48.020;7.822;2022-12-18T21:19:15;34.60;;;21.73;;
2564;SDS011;1292;48.020;7.822;2022-12-18T21:21:42;43.70;;;22.80;;
2564;SDS011;1292;48.020;7.822;2022-12-18T21:24:10;39.33;;;23.10;;
2564;SDS011;1292;48.020;7.822;2022-12-18T21:26:37;41.83;;;24.20;;
2564;SDS011;1292;48.020;7.822;2022-12-18T21:29:05;38.23;;;23.63;;
2564;SDS011;1292;48.020;7.822;2022-12-18T21:31:36;33.67;;;21.93;;
2564;SDS011;1292;48.020;7.822;2022-12-18T21:34:04;34.47;;;23.40;;
2564;SDS011;1292;48.020;7.822;2022-12-18T21:36:33;42.57;;;26.40;;
2564;SDS011;1292;48.020;7.822;2022-12-18T21:39:00;44.83;;;25.63;;
2564;SDS011;1292;48.020;7.822;2022-12-18T21:41:27;36.37;;;25.17;;
2564;SDS011;1292;48.020;7.822;2022-12-18T21:44:10;36.20;;;25.97;;
2564;SDS011;1292;48.020;7.822;2022-12-18T21:46:41;33.40;;;22.00;;
2564;SDS011;1292;48.020;7.822;2022-12-18T21:49:10;35.33;;;22.77;;
2564;SDS011;1292;48.020;7.822;2022-12-18T21:51:38;43.30;;;24.97;;
2564;SDS011;1292;48.020;7.822;2022-12-18T21:54:06;48.23;;;24.80;;
2564;SDS011;1292;48.020;7.822;2022-12-18T21:56:43;34.93;;;21.50;;
2564;SDS011;1292;48.020;7.822;2022-12-18T21:59:14;30.60;;;22.73;;
